Time;durP1;ratioP1;P1;durP2;ratioP2;P2;SDS_P1;SDS_P2;PMS_P1;PMS_P2;Temp;Humidity;BMP_temperature;BMP_pressure;BME280_temperature;BME280_humidity;BME280_pressure;Samples;Min_cycle;Max_cycle;Signal;HPM_P1;HPM_P2
2022/10/25 00:01:18;;;;;;;12.35;2.08;;;;;;;13.21;100.00;101227.72;5205764;28;20017;-74
2022/10/25 00:03:48;;;;;;;12.80;2.13;;;;;;;13.21;100.00;101230.41;5204943;28;20036;-74
2022/10/25 00:06:19;;;;;;;10.43;1.98;;;;;;;13.18;100.00;101230.75;5205728;28;20022;-74
2022/10/25 00:08:50;;;;;;;11.93;2.50;;;;;;;13.16;100.00;101230.94;5205287;28;20081;-74
2022/10/25 00:11:25;;;;;;;16.63;2.08;;;;;;;13.13;100.00;101225.03;5205323;28;20029;-74
2022/10/25 00:13:56;;;;;;;;;;;;;;;13.15;100.00;101236.47;5206154;28;20418;-74
2022/10/25 00:16:33;;;;;;;14.98;2.50;;;;;;;13.15;100.00;101231.09;5205322;28;19917;-73
2022/10/25 00:19:04;;;;;;;15.38;2.20;;;;;;;13.11;100.00;101221.69;5205152;28;20026;-74
2022/10/25 00:21:35;;;;;;;18.00;2.70;;;;;;;13.10;100.00;101228.94;5205367;28;20029;-73
2022/10/25 00:24:06;;;;;;;14.88;2.63;;;;;;;13.10;100.00;101223.56;5204356;28;20384;-73
2022/10/25 00:26:39;;;;;;;11.60;1.95;;;;;;;13.11;100.00;101224.38;5205302;28;20041;-74
2022/10/25 00:29:10;;;;;;;14.93;2.20;;;;;;;13.12;100.00;101221.50;5206012;28;20506;-74
2022/10/25 00:31:40;;;;;;;12.93;2.08;;;;;;;13.15;100.00;101221.19;5202390;28;20026;-74
2022/10/25 00:34:11;;;;;;;14.98;2.53;;;;;;;13.17;100.00;101221.00;5196892;28;20025;-74
2022/10/25 00:36:41;;;;;;;9.20;2.35;;;;;;;13.15;100.00;101220.31;5210729;28;20167;-74
2022/10/25 00:39:12;;;;;;;13.82;2.35;;;;;;;13.16;100.00;101222.84;5205375;28;20458;-74
2022/10/25 00:41:42;;;;;;;8.68;1.90;;;;;;;13.16;100.00;101230.09;5203683;28;20487;-74
2022/10/25 00:44:35;;;;;;;12.85;2.55;;;;;;;13.15;100.00;101228.38;5204882;28;20025;-74
2022/10/25 00:47:08;;;;;;;19.25;3.17;;;;;;;13.19;100.00;101235.13;5204387;28;20029;-76
2022/10/25 00:49:40;;;;;;;17.10;2.55;;;;;;;13.20;100.00;101234.97;5204795;28;20025;-76
2022/10/25 00:52:11;;;;;;;10.90;2.45;;;;;;;13.20;100.00;101226.88;5204922;28;20029;-75
2022/10/25 00:54:47;;;;;;;8.38;1.77;;;;;;;13.17;100.00;101240.69;5204725;28;20091;-75
2022/10/25 00:57:23;;;;;;;13.02;3.22;;;;;;;13.19;100.00;101235.97;5204653;28;20542;-75
2022/10/25 00:59:54;;;;;;;7.95;1.60;;;;;;;13.21;100.00;101238.50;5205190;28;20029;-75
2022/10/25 01:02:25;;;;;;;9.30;1.77;;;;;;;13.26;100.00;101240.72;5205259;28;20060;-75
2022/10/25 01:04:56;;;;;;;8.82;2.17;;;;;;;13.29;100.00;101245.72;5204943;28;20025;-75
2022/10/25 01:07:34;;;;;;;11.52;2.25;;;;;;;13.30;100.00;101245.53;5204145;28;20068;-75
2022/10/25 01:10:04;;;;;;;5.97;1.85;;;;;;;13.30;100.00;101248.25;5204608;28;20043;-77
2022/10/25 01:12:35;;;;;;;7.13;1.40;;;;;;;13.29;100.00;101251.94;5204719;28;20037;-76
2022/10/25 01:15:06;;;;;;;7.88;1.70;;;;;;;13.27;100.00;101258.53;5203900;28;20033;-76
2022/10/25 01:17:51;;;;;;;13.23;1.85;;;;;;;13.26;100.00;101256.88;5203568;28;20029;-77
2022/10/25 01:20:52;;;;;;;8.95;1.98;;;;;;;13.22;100.00;101256.38;5204539;28;20499;-77
2022/10/25 01:23:47;;;;;;;9.23;1.90;;;;;;;13.20;100.00;101267.28;5204090;28;20112;-76
2022/10/25 01:26:48;;;;;;;7.93;1.50;;;;;;;13.19;100.00;101262.91;5203700;28;20025;-75
2022/10/25 01:29:31;;;;;;;12.52;1.85;;;;;;;13.24;100.00;101266.97;5194585;28;20028;-76
2022/10/25 01:32:08;;;;;;;14.68;2.03;;;;;;;13.26;100.00;101273.03;5204176;28;20388;-76
2022/10/25 01:34:53;;;;;;;5.03;1.63;;;;;;;13.27;100.00;101275.53;5203905;28;20029;-76
2022/10/25 01:37:39;;;;;;;13.48;2.53;;;;;;;13.25;100.00;101277.56;5203634;28;20041;-76
2022/10/25 01:40:21;;;;;;;;;;;;;;;13.18;100.00;101285.47;5204329;28;20518;-76
2022/10/25 01:43:11;;;;;;;11.02;1.60;;;;;;;13.16;100.00;101282.13;5203697;28;19963;-75
2022/10/25 01:45:59;;;;;;;12.50;2.20;;;;;;;13.15;100.00;101280.44;5204284;28;20177;-75
2022/10/25 01:48:38;;;;;;;9.02;1.75;;;;;;;13.13;100.00;101277.06;5191170;28;20083;-75
2022/10/25 01:51:12;;;;;;;5.28;1.75;;;;;;;13.13;100.00;101282.44;5203653;28;20444;-75
2022/10/25 01:53:48;;;;;;;17.00;1.92;;;;;;;13.14;100.00;101277.91;5203824;28;20031;-76
2022/10/25 01:56:29;;;;;;;6.35;1.77;;;;;;;13.14;100.00;101283.28;5202487;28;20029;-75
2022/10/25 01:59:37;;;;;;;12.13;2.10;;;;;;;13.18;100.00;101279.25;5203484;28;20485;-76
2022/10/25 02:02:25;;;;;;;13.50;2.03;;;;;;;13.19;100.00;101287.16;5191094;28;20041;-76
2022/10/25 02:05:01;;;;;;;12.10;1.95;;;;;;;13.20;100.00;101285.28;5203575;28;20052;-76
2022/10/25 02:07:41;;;;;;;10.18;2.05;;;;;;;13.19;100.00;101286.31;5202941;28;20044;-76
2022/10/25 02:10:22;;;;;;;13.18;2.53;;;;;;;13.19;100.00;101291.69;5203326;28;20060;-75
2022/10/25 02:13:10;;;;;;;12.20;2.25;;;;;;;13.17;100.00;101289.19;5192480;28;20033;-76
2022/10/25 02:15:55;;;;;;;7.70;1.75;;;;;;;13.18;100.00;101296.25;5203413;28;20025;-75
2022/10/25 02:18:29;;;;;;;10.57;1.60;;;;;;;13.19;100.00;101302.47;5202467;28;20484;-75
2022/10/25 02:21:01;;;;;;;12.55;2.00;;;;;;;13.21;100.00;101301.34;5203566;28;20026;-76
2022/10/25 02:23:35;;;;;;;9.45;2.10;;;;;;;13.25;100.00;101298.28;5203539;28;20030;-75
2022/10/25 02:26:08;;;;;;;11.80;2.35;;;;;;;13.24;100.00;101302.81;5202944;28;20032;-74
2022/10/25 02:28:40;;;;;;;11.88;2.38;;;;;;;13.26;100.00;101302.69;5202223;28;20049;-73
2022/10/25 02:31:15;;;;;;;8.00;2.47;;;;;;;13.25;100.00;101284.81;5200299;28;20088;-73
2022/10/25 02:33:46;;;;;;;5.90;1.83;;;;;;;13.20;100.00;101296.94;5190378;28;20109;-74
2022/10/25 02:36:22;;;;;;;11.15;2.58;;;;;;;13.20;100.00;101299.63;5203514;28;20345;-75
2022/10/25 02:38:53;;;;;;;15.15;2.58;;;;;;;13.18;100.00;101296.25;5202449;28;20117;-75
2022/10/25 02:41:24;;;;;;;17.60;2.42;;;;;;;13.19;100.00;101297.09;5203256;28;20045;-74
2022/10/25 02:43:55;;;;;;;7.95;2.70;;;;;;;13.19;100.00;101302.47;5203200;28;20454;-74
2022/10/25 02:46:25;;;;;;;11.88;3.13;;;;;;;13.19;100.00;101303.31;5202878;28;20048;-73
2022/10/25 02:48:56;;;;;;;15.38;2.40;;;;;;;13.20;100.00;101298.75;5201775;28;20060;-74
2022/10/25 02:51:26;;;;;;;14.52;2.75;;;;;;;13.18;100.00;101298.94;5201586;28;20476;-74
2022/10/25 02:53:57;;;;;;;9.68;2.47;;;;;;;13.20;100.00;101301.44;5203299;28;20056;-74
2022/10/25 02:56:27;;;;;;;9.80;1.77;;;;;;;13.22;100.00;101310.25;5202960;28;20112;-73
2022/10/25 02:58:57;;;;;;;13.48;2.25;;;;;;;13.28;100.00;101309.56;5202600;28;20029;-73
2022/10/25 03:01:28;;;;;;;9.43;2.42;;;;;;;13.33;100.00;101322.50;5203226;28;20504;-74
2022/10/25 03:03:58;;;;;;;10.43;1.90;;;;;;;13.32;100.00;101312.75;5202456;28;20401;-74
2022/10/25 03:06:29;;;;;;;11.20;2.10;;;;;;;13.32;100.00;101321.69;5201819;28;20032;-74
2022/10/25 03:08:59;;;;;;;12.07;2.70;;;;;;;13.32;100.00;101326.22;5202555;28;20029;-74
2022/10/25 03:11:30;;;;;;;15.88;2.80;;;;;;;13.32;100.00;101328.91;5203278;28;20489;-73
2022/10/25 03:14:00;;;;;;;10.43;2.30;;;;;;;13.32;100.00;101327.06;5202808;28;20048;-74
2022/10/25 03:16:31;;;;;;;12.05;2.13;;;;;;;13.35;100.00;101333.94;5202787;28;20021;-75
2022/10/25 03:19:01;;;;;;;7.90;1.98;;;;;;;13.33;100.00;101326.03;5202431;28;20112;-75
2022/10/25 03:21:32;;;;;;;12.75;2.20;;;;;;;13.37;100.00;101329.25;5203216;28;20022;-74
2022/10/25 03:24:03;;;;;;;18.92;2.40;;;;;;;13.38;100.00;101349.78;5202526;28;20488;-75
2022/10/25 03:26:33;;;;;;;14.75;2.50;;;;;;;13.35;100.00;101333.94;5202304;28;20025;-74
2022/10/25 03:29:03;;;;;;;19.40;3.00;;;;;;;13.32;100.00;101339.69;5202109;28;20059;-74
2022/10/25 03:31:34;;;;;;;14.73;2.00;;;;;;;13.31;100.00;101338.03;5199043;28;20129;-75
2022/10/25 03:34:04;;;;;;;6.65;2.00;;;;;;;13.25;100.00;101344.06;5203103;28;20080;-75
2022/10/25 03:36:35;;;;;;;6.35;1.48;;;;;;;13.23;100.00;101343.41;5202328;28;20392;-75
2022/10/25 03:39:05;;;;;;;6.63;1.80;;;;;;;13.18;100.00;101349.28;5206135;28;20109;-74
2022/10/25 03:41:36;;;;;;;13.65;2.38;;;;;;;13.12;100.00;101349.97;5205857;28;20028;-75
2022/10/25 03:44:06;;;;;;;8.52;2.13;;;;;;;13.06;100.00;101350.66;5206467;28;20047;-75
2022/10/25 03:46:37;;;;;;;7.35;1.85;;;;;;;12.98;100.00;101348.81;5204855;28;20430;-75
2022/10/25 03:49:09;;;;;;;20.73;3.55;;;;;;;12.99;100.00;101355.88;5205994;28;20056;-74
2022/10/25 03:51:39;;;;;;;10.50;2.67;;;;;;;12.96;100.00;101356.22;5206268;28;20021;-74
2022/10/25 03:54:09;;;;;;;9.13;2.10;;;;;;;12.93;100.00;101357.38;5205634;28;20069;-75
2022/10/25 03:56:40;;;;;;;9.32;3.00;;;;;;;12.88;100.00;101361.59;5204984;28;20022;-75
2022/10/25 03:59:10;;;;;;;11.75;2.67;;;;;;;12.82;100.00;101362.28;5205775;28;20136;-76
2022/10/25 04:01:41;;;;;;;13.63;3.15;;;;;;;12.81;100.00;101366.00;5206525;28;20375;-75
2022/10/25 04:04:11;;;;;;;8.38;2.67;;;;;;;12.81;100.00;101369.53;5205053;28;20080;-75
2022/10/25 04:06:42;;;;;;;11.02;2.38;;;;;;;12.77;100.00;101356.56;5205355;28;20033;-74
2022/10/25 04:09:12;;;;;;;8.25;2.20;;;;;;;12.72;100.00;101358.91;5205922;28;20013;-74
2022/10/25 04:11:43;;;;;;;8.95;2.50;;;;;;;12.66;100.00;101360.44;5206166;28;20033;-74
2022/10/25 04:14:13;;;;;;;14.80;3.28;;;;;;;12.60;100.00;101366.47;5203151;28;20033;-73
2022/10/25 04:16:44;;;;;;;16.35;3.58;;;;;;;12.59;100.00;101371.00;5200525;28;20061;-76
2022/10/25 04:19:14;;;;;;;17.02;2.50;;;;;;;12.55;100.00;101374.19;5203984;28;20036;-76
2022/10/25 04:21:45;;;;;;;11.25;2.33;;;;;;;12.52;100.00;101375.38;5204354;28;20057;-76
2022/10/25 04:24:15;;;;;;;13.68;2.85;;;;;;;12.50;100.00;101381.94;5188356;28;20167;-76
2022/10/25 04:26:46;;;;;;;8.10;2.75;;;;;;;12.54;100.00;101383.28;5205373;28;20071;-76
2022/10/25 04:29:16;;;;;;;16.90;2.85;;;;;;;12.50;100.00;101388.19;5205220;28;20528;-75
2022/10/25 04:31:47;;;;;;;12.00;2.60;;;;;;;12.49;100.00;101391.00;5201898;28;20111;-76
2022/10/25 04:34:17;;;;;;;15.07;3.10;;;;;;;12.47;100.00;101388.50;5205718;28;20515;-76
2022/10/25 04:36:48;;;;;;;13.65;3.08;;;;;;;12.43;100.00;101387.13;5204895;28;20060;-76
2022/10/25 04:39:18;;;;;;;12.30;2.80;;;;;;;12.38;100.00;101389.47;5205661;28;20029;-75
2022/10/25 04:41:49;;;;;;;20.95;3.33;;;;;;;12.34;100.00;101393.50;5206497;28;20064;-76
2022/10/25 04:44:19;;;;;;;16.45;4.15;;;;;;;12.28;100.00;101400.38;5207145;28;20388;-75
2022/10/25 04:46:50;;;;;;;11.77;3.10;;;;;;;12.29;100.00;101404.75;5208257;28;20041;-75
2022/10/25 04:49:21;;;;;;;19.85;3.97;;;;;;;12.31;100.00;101415.38;5205133;28;20483;-75
2022/10/25 04:51:51;;;;;;;30.35;3.80;;;;;;;12.31;100.00;101415.38;5205384;28;20087;-76
2022/10/25 04:54:21;;;;;;;13.98;4.03;;;;;;;12.31;100.00;101413.53;5204753;28;20049;-76
2022/10/25 04:56:52;;;;;;;15.00;4.55;;;;;;;12.30;100.00;101424.41;5205611;28;20037;-73
2022/10/25 04:59:23;;;;;;;12.95;4.50;;;;;;;12.28;100.00;101415.69;5205041;28;20056;-74
2022/10/25 05:01:54;;;;;;;17.38;4.25;;;;;;;12.30;100.00;101425.28;5209659;28;20049;-74
2022/10/25 05:04:24;;;;;;;11.43;3.90;;;;;;;12.30;100.00;101419.03;5210826;28;20021;-75
2022/10/25 05:06:54;;;;;;;11.75;4.38;;;;;;;12.26;100.00;101409.63;5204887;28;20421;-75
2022/10/25 05:09:25;;;;;;;14.75;4.10;;;;;;;12.31;100.00;101412.69;5204825;28;20021;-75
2022/10/25 05:11:55;;;;;;;11.20;4.20;;;;;;;12.35;100.00;101422.97;5204623;28;20029;-75
2022/10/25 05:14:26;;;;;;;21.98;5.30;;;;;;;12.39;100.00;101423.44;5204907;28;20022;-76
2022/10/25 05:16:56;;;;;;;12.38;4.70;;;;;;;12.39;100.00;101426.97;5204272;28;20018;-75
2022/10/25 05:19:27;;;;;;;20.20;4.18;;;;;;;12.37;100.00;101420.94;5204698;28;20531;-75
2022/10/25 05:21:57;;;;;;;16.35;4.10;;;;;;;12.39;100.00;101423.44;5204133;28;20026;-74
2022/10/25 05:24:28;;;;;;;16.40;4.57;;;;;;;12.46;100.00;101435.25;5204056;28;20022;-75
2022/10/25 05:26:58;;;;;;;19.25;3.88;;;;;;;12.51;100.00;101430.22;5203549;28;20025;-77
2022/10/25 05:29:29;;;;;;;15.52;4.45;;;;;;;12.57;100.00;101440.31;5204057;28;20044;-76
2022/10/25 05:31:59;;;;;;;15.52;4.07;;;;;;;12.62;100.00;101434.44;5199847;28;20404;-76
2022/10/25 05:34:30;;;;;;;7.55;3.40;;;;;;;12.66;100.00;101428.56;5203905;28;20060;-76
2022/10/25 05:37:00;;;;;;;10.73;3.60;;;;;;;12.68;100.00;101434.63;5203195;28;20033;-76
2022/10/25 05:39:31;;;;;;;15.50;4.10;;;;;;;12.72;100.00;101437.84;5204107;28;20031;-77
2022/10/25 05:42:05;;;;;;;11.15;3.88;;;;;;;12.74;100.00;101443.03;5204048;28;20124;-77
2022/10/25 05:44:35;;;;;;;13.40;3.35;;;;;;;12.72;100.00;101445.06;5203118;28;20064;-76
2022/10/25 05:47:06;;;;;;;16.58;4.15;;;;;;;12.67;100.00;101462.56;5202897;28;20065;-76
2022/10/25 05:49:39;;;;;;;17.45;3.55;;;;;;;12.65;100.00;101456.50;5203394;28;20029;-76
2022/10/25 05:52:10;;;;;;;14.32;3.97;;;;;;;12.67;100.00;101456.31;5203709;28;20025;-76
2022/10/25 05:54:40;;;;;;;18.50;4.20;;;;;;;12.65;100.00;101450.25;5203264;28;20537;-74
2022/10/25 05:57:10;;;;;;;12.10;3.65;;;;;;;12.63;100.00;101450.41;5202774;28;20034;-74
2022/10/25 05:59:41;;;;;;;9.15;3.72;;;;;;;12.60;100.00;101449.91;5203496;28;20167;-74
2022/10/25 06:02:11;;;;;;;28.83;4.82;;;;;;;12.55;100.00;101460.31;5203080;28;20104;-74
2022/10/25 06:04:42;;;;;;;14.15;3.33;;;;;;;12.50;100.00;101465.34;5203301;28;20041;-74
2022/10/25 06:07:12;;;;;;;15.20;3.88;;;;;;;12.47;100.00;101469.22;5202385;28;20029;-74
2022/10/25 06:09:43;;;;;;;16.83;4.13;;;;;;;12.44;100.00;101474.94;5203197;28;20102;-74
2022/10/25 06:12:13;;;;;;;12.75;3.47;;;;;;;12.39;100.00;101469.19;5203227;28;20031;-74
2022/10/25 06:14:44;;;;;;;13.23;4.35;;;;;;;12.35;100.00;101467.81;5202108;28;20021;-74
2022/10/25 06:17:14;;;;;;;14.35;4.10;;;;;;;12.34;100.00;101468.84;5202671;28;20077;-74
2022/10/25 06:19:45;;;;;;;11.90;3.95;;;;;;;12.37;100.00;101463.13;5202687;28;20026;-75
2022/10/25 06:22:15;;;;;;;13.10;4.18;;;;;;;12.43;100.00;101467.88;5202823;28;20057;-74
2022/10/25 06:24:46;;;;;;;14.45;4.30;;;;;;;12.46;100.00;101472.09;5203107;28;20026;-74
2022/10/25 06:27:16;;;;;;;20.58;4.88;;;;;;;12.52;100.00;101472.28;5202520;28;20072;-74
2022/10/25 06:29:46;;;;;;;16.73;4.63;;;;;;;12.57;100.00;101474.47;5203066;28;20025;-74
2022/10/25 06:32:17;;;;;;;13.88;4.07;;;;;;;12.61;100.00;101482.06;5199041;28;20060;-74
2022/10/25 06:34:47;;;;;;;11.60;3.60;;;;;;;12.67;100.00;101484.09;5202924;28;20072;-74
2022/10/25 06:37:18;;;;;;;13.98;4.45;;;;;;;12.67;100.00;101485.94;5202419;28;20028;-74
2022/10/25 06:39:49;;;;;;;10.57;4.30;;;;;;;12.66;100.00;101490.47;5202952;28;20034;-74
2022/10/25 06:42:19;;;;;;;14.30;4.22;;;;;;;12.66;100.00;101495.88;5202984;28;20052;-75
2022/10/25 06:44:50;;;;;;;21.17;6.85;;;;;;;12.64;100.00;101494.34;5202283;28;20033;-75
2022/10/25 06:47:20;;;;;;;16.02;5.53;;;;;;;12.68;100.00;101501.06;5202123;28;20446;-75
2022/10/25 06:49:50;;;;;;;17.23;4.70;;;;;;;12.74;100.00;101502.28;5202715;28;20436;-73
2022/10/25 06:52:21;;;;;;;16.65;5.35;;;;;;;12.82;100.00;101502.31;5202907;28;20030;-75
2022/10/25 06:54:51;;;;;;;15.43;5.05;;;;;;;12.85;100.00;101500.13;5189667;28;20074;-75
2022/10/25 06:57:23;;;;;;;20.13;5.15;;;;;;;12.91;100.00;101510.22;5194504;28;20037;-75
2022/10/25 06:59:54;;;;;;;14.68;4.88;;;;;;;12.95;100.00;101513.41;5187595;28;20449;-75
2022/10/25 07:02:24;;;;;;;20.02;4.20;;;;;;;13.00;100.00;101510.22;5196917;28;20037;-75
2022/10/25 07:04:57;;;;;;;22.55;4.40;;;;;;;13.03;100.00;101512.59;5201997;28;20367;-75
2022/10/25 07:07:28;;;;;;;17.60;4.43;;;;;;;13.04;100.00;101517.81;5200056;28;20463;-75
2022/10/25 07:09:58;;;;;;;15.88;4.03;;;;;;;13.06;100.00;101517.66;5200496;28;20021;-74
2022/10/25 07:12:30;;;;;;;15.65;3.70;;;;;;;13.06;100.00;101518.50;5201782;28;20547;-75
2022/10/25 07:15:01;;;;;;;12.10;3.60;;;;;;;13.04;100.00;101520.50;5204752;28;20523;-75
2022/10/25 07:17:31;;;;;;;21.58;4.03;;;;;;;13.06;100.00;101525.75;5204325;28;20025;-74
2022/10/25 07:20:02;;;;;;;13.85;3.92;;;;;;;13.10;100.00;101519.88;5204493;28;20075;-75
2022/10/25 07:22:33;;;;;;;19.55;4.55;;;;;;;13.15;100.00;101527.41;5204560;28;20442;-75
2022/10/25 07:25:03;;;;;;;14.40;3.22;;;;;;;13.25;100.00;101525.44;5204631;28;20290;-75
2022/10/25 07:27:34;;;;;;;13.57;3.00;;;;;;;13.35;100.00;101530.66;5203852;28;20021;-73
2022/10/25 07:30:05;;;;;;;15.55;3.40;;;;;;;13.63;100.00;101526.63;5204213;28;20025;-75
2022/10/25 07:32:35;;;;;;;16.20;3.35;;;;;;;13.98;100.00;101522.69;5200488;28;20029;-75
2022/10/25 07:35:06;;;;;;;11.70;3.10;;;;;;;14.04;100.00;101531.13;5204502;28;20108;-75
2022/10/25 07:37:36;;;;;;;10.57;3.35;;;;;;;14.27;100.00;101533.94;5203453;28;20033;-75
2022/10/25 07:40:07;;;;;;;9.20;2.50;;;;;;;14.46;100.00;101530.84;5204398;28;20052;-75
2022/10/25 07:42:38;;;;;;;16.10;3.10;;;;;;;14.48;100.00;101534.22;5204194;28;20022;-75
2022/10/25 07:45:09;;;;;;;9.63;2.92;;;;;;;14.64;100.00;101531.44;5204292;28;20025;-75
2022/10/25 07:47:39;;;;;;;11.63;2.88;;;;;;;14.90;100.00;101530.28;5202800;28;20396;-75
2022/10/25 07:50:09;;;;;;;16.20;2.33;;;;;;;14.72;100.00;101534.09;5204281;28;20045;-76
2022/10/25 07:52:40;;;;;;;12.20;2.50;;;;;;;14.61;100.00;101536.34;5204328;28;20250;-76
2022/10/25 07:55:11;;;;;;;11.30;2.22;;;;;;;14.55;100.00;101540.59;5204325;28;20035;-75
2022/10/25 07:57:42;;;;;;;11.50;3.00;;;;;;;14.65;100.00;101551.19;5202292;28;20029;-75
2022/10/25 08:00:12;;;;;;;11.40;2.50;;;;;;;14.76;100.00;101548.94;5203800;28;20447;-73
2022/10/25 08:02:43;;;;;;;16.10;2.95;;;;;;;14.85;100.00;101554.28;5204298;28;20029;-73
2022/10/25 08:05:13;;;;;;;13.35;2.25;;;;;;;15.18;100.00;101550.38;5203686;28;20452;-73
2022/10/25 08:07:44;;;;;;;11.38;2.10;;;;;;;15.47;100.00;101554.22;5202693;28;20093;-73
2022/10/25 08:10:14;;;;;;;14.52;2.65;;;;;;;15.47;100.00;101549.66;5202994;28;20100;-73
2022/10/25 08:12:48;;;;;;;11.23;2.70;;;;;;;15.19;100.00;101551.22;5203921;28;20029;-73
2022/10/25 08:15:19;;;;;;;11.85;2.33;;;;;;;15.17;100.00;101550.56;5203532;28;20044;-73
2022/10/25 08:18:00;;;;;;;9.75;2.40;;;;;;;14.95;100.00;101549.50;5202966;28;20025;-73
2022/10/25 08:20:31;;;;;;;8.63;2.20;;;;;;;15.07;100.00;101556.19;5203659;28;20053;-73
2022/10/25 08:23:01;;;;;;;8.80;2.58;;;;;;;15.04;100.00;101570.06;5202826;28;20115;-73
2022/10/25 08:25:31;;;;;;;14.95;2.38;;;;;;;15.16;100.00;101555.13;5203127;28;20118;-73
2022/10/25 08:28:02;;;;;;;20.52;3.28;;;;;;;15.51;100.00;101558.22;5202368;28;20013;-72
2022/10/25 08:30:33;;;;;;;12.20;2.58;;;;;;;15.79;100.00;101561.25;5203510;28;20515;-73
2022/10/25 08:33:03;;;;;;;12.25;2.45;;;;;;;15.80;100.00;101554.81;5186282;28;20545;-73
2022/10/25 08:35:34;;;;;;;9.68;2.22;;;;;;;15.74;100.00;101556.38;5203361;28;20014;-73
2022/10/25 08:38:05;;;;;;;12.63;1.77;;;;;;;15.61;100.00;101564.22;5202293;28;20185;-73
2022/10/25 08:41:13;;;;;;;10.65;2.08;;;;;;;15.33;100.00;101563.97;5203608;28;20477;-72
2022/10/25 08:43:50;;;;;;;14.00;2.80;;;;;;;15.03;100.00;101560.28;5191669;28;20026;-73
2022/10/25 08:46:33;;;;;;;14.23;2.35;;;;;;;15.17;100.00;101556.81;5203009;28;20292;-73
2022/10/25 08:49:12;;;;;;;16.25;2.47;;;;;;;15.92;100.00;101555.22;5202610;28;20021;-73
2022/10/25 08:51:46;;;;;;;12.98;2.95;;;;;;;16.45;100.00;101553.28;5203574;28;20026;-72
2022/10/25 08:54:28;;;;;;;13.63;2.33;;;;;;;16.28;100.00;101561.59;5203890;28;20033;-72
2022/10/25 08:57:23;;;;;;;8.98;2.13;;;;;;;16.02;100.00;101581.00;5203479;28;20108;-72
2022/10/25 08:59:57;;;;;;;12.07;2.25;;;;;;;15.88;100.00;101580.97;5203212;28;20025;-72
2022/10/25 09:02:55;;;;;;;13.27;2.55;;;;;;;15.96;100.00;101579.00;5202068;28;20029;-72
2022/10/25 09:05:54;;;;;;;12.27;3.33;;;;;;;16.12;100.00;101586.16;5202781;28;20104;-72
2022/10/25 09:08:40;;;;;;;10.48;1.90;;;;;;;16.66;100.00;101577.72;5200625;28;20041;-72
2022/10/25 09:11:26;;;;;;;12.05;2.20;;;;;;;16.81;100.00;101584.00;5190426;28;20087;-72
2022/10/25 09:14:07;;;;;;;;;;;;;;;17.04;100.00;101585.75;5202969;28;20047;-73
2022/10/25 09:16:47;;;;;;;8.73;2.10;;;;;;;17.08;100.00;101592.47;5202940;28;20323;-73
2022/10/25 09:19:27;;;;;;;14.02;2.53;;;;;;;17.53;100.00;101593.16;5189349;28;20065;-72
2022/10/25 09:22:03;;;;;;;13.60;2.45;;;;;;;17.82;100.00;101605.75;5202840;28;20029;-73
2022/10/25 09:25:07;;;;;;;9.90;2.50;;;;;;;18.24;100.00;101604.00;5202680;28;20034;-73
2022/10/25 09:28:02;;;;;;;12.65;2.33;;;;;;;18.02;100.00;101601.34;5191680;28;20536;-73
2022/10/25 09:30:38;;;;;;;11.27;2.00;;;;;;;17.58;100.00;101610.53;5202065;28;20024;-73
2022/10/25 09:33:18;;;;;;;19.48;2.60;;;;;;;17.55;100.00;101616.31;5198893;28;20370;-73
2022/10/25 09:35:53;;;;;;;10.68;2.30;;;;;;;17.57;100.00;101610.69;5199689;28;20029;-73
2022/10/25 09:38:29;;;;;;;13.07;2.80;;;;;;;17.35;100.00;101607.97;5201066;28;20389;-73
2022/10/25 09:41:09;;;;;;;8.13;2.13;;;;;;;17.83;100.00;101613.72;5202274;28;20056;-73
2022/10/25 09:43:51;;;;;;;11.45;1.95;;;;;;;18.41;100.00;101605.34;5202152;28;20520;-73
2022/10/25 09:46:43;;;;;;;9.68;2.50;;;;;;;18.71;100.00;101608.69;5201613;28;20357;-73
2022/10/25 09:49:37;;;;;;;11.77;2.20;;;;;;;18.61;100.00;101603.59;5201173;28;20013;-73
2022/10/25 09:52:30;;;;;;;9.98;2.13;;;;;;;18.49;100.00;101613.34;5201811;28;20459;-73
2022/10/25 09:55:39;;;;;;;13.80;2.97;;;;;;;17.96;100.00;101615.69;5200908;28;20025;-73
2022/10/25 09:58:18;;;;;;;14.68;2.30;;;;;;;17.59;100.00;101617.63;5189104;28;20040;-73
2022/10/25 10:00:50;;;;;;;10.30;2.53;;;;;;;17.17;100.00;101614.84;5201370;28;20029;-73
2022/10/25 10:03:26;;;;;;;10.90;2.95;;;;;;;17.10;100.00;101620.22;5201771;28;20104;-73
2022/10/25 10:06:01;;;;;;;8.85;2.60;;;;;;;16.90;100.00;101613.72;5201831;28;20116;-73
2022/10/25 10:08:34;;;;;;;12.38;2.13;;;;;;;16.60;100.00;101610.97;5200617;28;20092;-73
2022/10/25 10:11:05;;;;;;;10.05;2.13;;;;;;;16.45;100.00;101619.09;5201319;28;20503;-73
2022/10/25 10:13:45;;;;;;;10.98;2.50;;;;;;;16.27;100.00;101615.94;5201315;28;20031;-73
2022/10/25 10:16:34;;;;;;;11.88;2.65;;;;;;;16.34;100.00;101605.19;5201861;28;20083;-73
2022/10/25 10:19:22;;;;;;;12.13;2.33;;;;;;;16.52;100.00;101603.81;5200959;28;20056;-73
2022/10/25 10:21:57;;;;;;;8.65;2.53;;;;;;;16.63;100.00;101601.66;5201688;28;20514;-73
2022/10/25 10:24:31;;;;;;;7.97;2.50;;;;;;;17.04;100.00;101597.41;5199958;28;20026;-73
2022/10/25 10:27:05;;;;;;;16.13;2.30;;;;;;;17.23;100.00;101606.81;5201067;28;20025;-73
2022/10/25 10:29:57;;;;;;;11.93;2.77;;;;;;;17.09;100.00;101621.25;5201436;28;20083;-73
2022/10/25 10:32:39;;;;;;;14.82;2.38;;;;;;;16.57;100.00;101605.97;5197988;28;20033;-73
2022/10/25 10:35:34;;;;;;;13.18;2.50;;;;;;;16.40;100.00;101612.56;5201410;28;20028;-73
2022/10/25 10:38:28;;;;;;;14.77;3.00;;;;;;;16.36;100.00;101627.50;5200063;28;20389;-73
2022/10/25 10:41:22;;;;;;;18.20;3.25;;;;;;;16.05;100.00;101623.06;5196249;28;20048;-73
2022/10/25 10:44:12;;;;;;;16.85;2.80;;;;;;;16.15;100.00;101611.97;5201441;28;20025;-73
2022/10/25 10:46:45;;;;;;;11.30;3.03;;;;;;;16.06;100.00;101619.34;5202613;28;20044;-73
2022/10/25 10:49:16;;;;;;;9.43;2.72;;;;;;;15.85;100.00;101613.78;5204848;28;20476;-73
2022/10/25 10:51:46;;;;;;;13.27;3.53;;;;;;;15.88;100.00;101610.72;5205728;28;20021;-73
2022/10/25 10:54:23;;;;;;;16.98;3.67;;;;;;;16.01;100.00;101611.78;5203916;28;20100;-73
2022/10/25 10:57:00;;;;;;;7.80;1.92;;;;;;;16.24;100.00;101614.44;5204870;28;20026;-73
2022/10/25 10:59:38;;;;;;;15.48;3.55;;;;;;;16.55;100.00;101608.00;5204956;28;20057;-74
2022/10/25 11:02:22;;;;;;;10.90;2.33;;;;;;;16.90;100.00;101609.13;5205220;28;20076;-73
2022/10/25 11:04:54;;;;;;;8.57;2.05;;;;;;;17.02;100.00;101606.78;5205853;28;20017;-73
2022/10/25 11:07:32;;;;;;;6.65;2.10;;;;;;;17.27;100.00;101604.53;5204635;28;20396;-73
2022/10/25 11:10:19;;;;;;;13.95;2.67;;;;;;;17.38;100.00;101604.06;5206297;28;20025;-73
2022/10/25 11:13:06;;;;;;;8.27;1.85;;;;;;;17.37;100.00;101607.81;5206466;28;20396;-73
2022/10/25 11:16:08;;;;;;;10.20;1.92;;;;;;;17.34;100.00;101613.59;5205944;28;20519;-73
2022/10/25 11:19:05;;;;;;;9.25;2.45;;;;;;;17.30;100.00;101613.13;5189160;28;20041;-73
2022/10/25 11:21:50;;;;;;;12.70;2.42;;;;;;;17.29;100.00;101622.31;5206203;28;20060;-73
2022/10/25 11:24:39;;;;;;;7.28;2.42;;;;;;;16.99;100.00;101609.88;5195191;28;20029;-73
2022/10/25 11:27:09;;;;;;;6.85;2.25;;;;;;;16.92;100.00;101615.22;5204761;28;20022;-73
2022/10/25 11:29:45;;;;;;;7.20;1.85;;;;;;;16.78;100.00;101611.47;5205870;28;20029;-73
2022/10/25 11:32:15;;;;;;;14.65;2.25;;;;;;;16.70;100.00;101610.69;5194120;28;20029;-74
2022/10/25 11:35:08;;;;;;;8.95;2.10;;;;;;;16.61;100.00;101609.94;5200720;28;20030;-73
2022/10/25 11:37:55;;;;;;;9.63;2.38;;;;;;;16.69;100.00;101606.31;5205038;28;20036;-74
2022/10/25 11:40:31;;;;;;;10.95;2.60;;;;;;;16.73;100.00;101605.78;5193726;28;20033;-73
2022/10/25 11:43:33;;;;;;;17.50;2.72;;;;;;;16.74;100.00;101604.75;5205454;28;20503;-74
2022/10/25 11:46:10;;;;;;;9.95;2.03;;;;;;;16.58;100.00;101591.38;5200029;28;20419;-74
2022/10/25 11:49:27;;;;;;;8.43;1.95;;;;;;;16.49;100.00;101603.34;5205469;28;20018;-74